Time;durP1;ratioP1;P1;durP2;ratioP2;P2;SDS_P1;SDS_P2;PMS_P1;PMS_P2;Temp;Humidity;BMP_temperature;BMP_pressure;BME280_temperature;BME280_humidity;BME280_pressure;Samples;Min_cycle;Max_cycle;Signal;HPM_P1;HPM_P2
2024/01/31 00:00:07;;;;;;;52.25;24.75;;;-1.10;99.90;;;;;;5104160;28;20031;-71
2024/01/31 00:02:33;;;;;;;52.10;25.00;;;-0.80;99.90;;;;;;5098895;28;20099;-73
2024/01/31 00:04:59;;;;;;;68.97;30.10;;;-1.10;99.90;;;;;;5074508;28;20316;-73
2024/01/31 00:07:25;;;;;;;58.80;28.00;;;;;;;;;;5083712;28;20101;-73
2024/01/31 00:09:50;;;;;;;69.65;31.30;;;-1.20;99.90;;;;;;5075305;28;20048;-71
2024/01/31 00:12:16;;;;;;;74.70;32.15;;;-1.10;99.90;;;;;;5063478;28;20033;-72
2024/01/31 00:14:45;;;;;;;76.72;32.00;;;-1.20;99.90;;;;;;5063456;28;20017;-73
2024/01/31 00:17:11;;;;;;;74.30;34.43;;;-1.20;99.90;;;;;;5063708;28;20217;-72
2024/01/31 00:19:36;;;;;;;71.00;33.63;;;-1.30;99.90;;;;;;5062372;28;20277;-69
2024/01/31 00:22:02;;;;;;;73.53;31.70;;;-1.50;99.90;;;;;;5063334;28;20248;-72
2024/01/31 00:24:28;;;;;;;67.00;30.08;;;-1.30;99.90;;;;;;5063660;28;20020;-71
2024/01/31 00:26:53;;;;;;;63.10;29.45;;;-1.30;99.90;;;;;;5082645;28;20377;-70
2024/01/31 00:29:19;;;;;;;67.05;31.98;;;-1.20;99.90;;;;;;5103760;28;20308;-72
2024/01/31 00:31:45;;;;;;;66.40;28.50;;;;;;;;;;5103377;28;20059;-72
2024/01/31 00:34:11;;;;;;;62.55;29.65;;;;;;;;;;5103550;28;20028;-74
2024/01/31 00:36:37;;;;;;;61.92;28.15;;;-1.30;99.90;;;;;;5102150;28;20024;-74
2024/01/31 00:39:03;;;;;;;56.78;29.08;;;;;;;;;;5103273;28;20083;-72
2024/01/31 00:41:30;;;;;;;59.17;28.15;;;-1.40;99.90;;;;;;5103218;28;20031;-73
2024/01/31 00:43:56;;;;;;;64.22;28.85;;;;;;;;;;5102980;28;20028;-73
2024/01/31 00:46:22;;;;;;;64.45;29.50;;;-1.20;99.90;;;;;;5103203;28;20039;-74
2024/01/31 00:48:47;;;;;;;57.33;27.92;;;-1.30;99.90;;;;;;5102244;28;20020;-72
2024/01/31 00:51:13;;;;;;;59.95;26.85;;;-0.90;99.90;;;;;;5065514;28;20070;-72
2024/01/31 00:53:39;;;;;;;56.53;27.35;;;-1.40;99.90;;;;;;5063043;28;20096;-73
2024/01/31 00:56:05;;;;;;;68.28;32.60;;;;;;;;;;5062788;28;20058;-74
2024/01/31 00:58:33;;;;;;;63.60;29.20;;;-1.40;99.90;;;;;;5062819;28;20035;-73
2024/01/31 01:00:59;;;;;;;61.25;29.25;;;;;;;;;;5072369;28;20028;-70
2024/01/31 01:03:25;;;;;;;57.70;26.00;;;;;;;;;;5082643;28;20022;-72
2024/01/31 01:05:51;;;;;;;54.15;25.23;;;;;;;;;;5082531;28;20420;-73
2024/01/31 01:08:17;;;;;;;54.55;24.45;;;;;;;;;;5082746;28;20020;-74
2024/01/31 01:10:43;;;;;;;52.42;24.50;;;-1.40;99.90;;;;;;5082672;28;20017;-73
2024/01/31 01:13:09;;;;;;;54.47;24.05;;;;;;;;;;5081218;28;20213;-73
2024/01/31 01:15:34;;;;;;;54.38;24.95;;;-1.40;99.90;;;;;;5082438;28;20023;-75
2024/01/31 01:18:00;;;;;;;54.05;24.88;;;;;;;;;;5082455;28;20091;-72
2024/01/31 01:20:26;;;;;;;52.03;23.33;;;;;;;;;;5082491;28;20025;-73
2024/01/31 01:22:52;;;;;;;45.13;21.17;;;;;;;;;;5082209;28;20382;-73
2024/01/31 01:25:18;;;;;;;38.75;18.63;;;;;;;;;;5081939;28;20029;-73
2024/01/31 01:27:50;;;;;;;52.22;23.92;;;-1.50;99.90;;;;;;5082133;28;20185;-74
2024/01/31 01:30:17;;;;;;;44.92;20.95;;;-1.40;99.90;;;;;;5082235;28;20017;-73
2024/01/31 01:32:43;;;;;;;43.53;20.17;;;-1.30;99.90;;;;;;5082001;28;20048;-74
2024/01/31 01:35:09;;;;;;;38.25;17.80;;;-1.30;99.90;;;;;;5082098;28;20209;-72
2024/01/31 01:37:34;;;;;;;36.25;19.80;;;-1.40;99.90;;;;;;5082167;28;20025;-72
2024/01/31 01:40:00;;;;;;;42.03;20.30;;;-0.90;99.90;;;;;;5081986;28;20178;-72
2024/01/31 01:42:26;;;;;;;39.22;18.38;;;;;;;;;;5082359;28;20016;-74
2024/01/31 01:44:52;;;;;;;35.85;17.35;;;;;;;;;;5082279;28;20024;-75
2024/01/31 01:47:18;;;;;;;36.35;18.60;;;;;;;;;;5086505;28;20043;-75
2024/01/31 01:49:45;;;;;;;47.50;20.25;;;-1.40;99.90;;;;;;5102813;28;20367;-75
2024/01/31 01:52:12;;;;;;;40.92;19.55;;;-1.50;99.90;;;;;;5103711;28;20019;-75
2024/01/31 01:54:39;;;;;;;46.00;23.23;;;-1.40;99.90;;;;;;5101248;28;20028;-74
2024/01/31 01:57:06;;;;;;;46.92;23.08;;;-1.40;99.90;;;;;;5102220;28;20031;-74
2024/01/31 01:59:34;;;;;;;45.58;21.52;;;-1.50;99.90;;;;;;5102012;28;20089;-72
2024/01/31 02:02:01;;;;;;;43.80;20.45;;;-1.50;99.90;;;;;;5102317;28;20110;-75
2024/01/31 02:04:28;;;;;;;33.13;15.95;;;-1.40;99.90;;;;;;5102778;28;20308;-75
2024/01/31 02:06:54;;;;;;;33.00;15.27;;;-1.50;99.90;;;;;;5103372;28;20209;-75
2024/01/31 02:09:20;;;;;;;38.17;16.90;;;-1.50;99.90;;;;;;5103124;28;20332;-75
2024/01/31 02:11:46;;;;;;;42.85;18.90;;;-1.40;99.90;;;;;;5102020;28;20024;-70
2024/01/31 02:14:11;;;;;;;35.22;18.15;;;-1.40;99.90;;;;;;5101999;28;20043;-71
2024/01/31 02:16:37;;;;;;;41.05;19.83;;;-1.50;99.90;;;;;;5101598;28;20058;-71
2024/01/31 02:19:03;;;;;;;45.70;21.83;;;-1.60;99.90;;;;;;5101626;28;20611;-74
2024/01/31 02:21:30;;;;;;;47.45;22.35;;;-1.60;99.90;;;;;;5101583;28;20032;-72
2024/01/31 02:23:56;;;;;;;35.72;19.33;;;-1.10;99.90;;;;;;5100361;28;20027;-70
2024/01/31 02:26:22;;;;;;;39.88;17.45;;;-1.20;99.90;;;;;;5101449;28;20028;-72
2024/01/31 02:28:47;;;;;;;39.05;18.08;;;-1.70;99.90;;;;;;5101431;28;20019;-71
2024/01/31 02:31:13;;;;;;;33.08;16.20;;;;;;;;;;5101451;28;20132;-71
2024/01/31 02:33:39;;;;;;;32.05;16.67;;;-1.70;99.90;;;;;;5101451;28;20024;-73
2024/01/31 02:36:05;;;;;;;34.85;16.50;;;-1.60;99.90;;;;;;5101477;28;20078;-70
2024/01/31 02:38:32;;;;;;;38.50;17.05;;;-1.70;99.90;;;;;;5101631;28;20024;-70
2024/01/31 02:40:58;;;;;;;33.60;17.00;;;-1.70;99.90;;;;;;5101804;28;20525;-70
2024/01/31 02:43:24;;;;;;;36.88;17.23;;;;;;;;;;5101620;28;20035;-71
2024/01/31 02:45:50;;;;;;;43.08;19.70;;;;;;;;;;5101920;28;20044;-72
2024/01/31 02:48:16;;;;;;;36.67;17.65;;;;;;;;;;5101979;28;20031;-69
2024/01/31 02:50:41;;;;;;;33.28;15.27;;;-1.60;99.90;;;;;;5101909;28;20047;-70
2024/01/31 02:53:07;;;;;;;32.47;15.38;;;-1.90;99.90;;;;;;5090084;28;20300;-70
2024/01/31 02:55:32;;;;;;;34.72;16.02;;;-1.90;99.90;;;;;;5081371;28;20024;-68
2024/01/31 02:57:58;;;;;;;36.22;17.63;;;-1.90;99.90;;;;;;5080978;28;20053;-68
2024/01/31 03:00:24;;;;;;;37.15;19.02;;;;;;;;;;5081282;28;20070;-68
2024/01/31 03:02:50;;;;;;;37.00;17.85;;;-1.80;99.90;;;;;;5081035;28;20024;-67
2024/01/31 03:05:16;;;;;;;35.65;16.05;;;;;;;;;;5080950;28;20376;-67
2024/01/31 03:07:42;;;;;;;31.65;15.35;;;-2.00;99.90;;;;;;5084837;28;20013;-67
2024/01/31 03:10:09;;;;;;;33.75;17.45;;;-1.80;99.90;;;;;;5085091;28;20219;-67
2024/01/31 03:12:35;;;;;;;38.92;18.60;;;-1.80;99.90;;;;;;5084758;28;20032;-71
2024/01/31 03:15:01;;;;;;;37.92;19.13;;;-2.00;99.90;;;;;;5085167;28;20017;-70
2024/01/31 03:17:27;;;;;;;42.20;20.55;;;;;;;;;;5083671;28;20016;-68
2024/01/31 03:19:53;;;;;;;41.25;19.65;;;-2.00;99.90;;;;;;5084786;28;20246;-69
2024/01/31 03:22:18;;;;;;;34.88;17.85;;;-1.90;99.90;;;;;;5084578;28;20012;-69
2024/01/31 03:24:44;;;;;;;36.97;17.02;;;;;;;;;;5084471;28;20090;-70
2024/01/31 03:27:11;;;;;;;30.33;15.20;;;;;;;;;;5084270;28;20059;-69
2024/01/31 03:29:36;;;;;;;38.72;18.48;;;-1.90;99.90;;;;;;5084322;28;20017;-70
2024/01/31 03:32:02;;;;;;;42.33;19.08;;;-1.80;99.90;;;;;;5084298;28;20052;-70
2024/01/31 03:34:28;;;;;;;43.33;18.60;;;-2.80;99.90;;;;;;5084542;28;20071;-67
2024/01/31 03:36:54;;;;;;;39.72;19.52;;;-1.70;99.90;;;;;;5084519;28;20024;-67
2024/01/31 03:39:20;;;;;;;43.65;19.95;;;;;;;;;;5084343;28;20051;-67
2024/01/31 03:41:49;;;;;;;32.13;17.00;;;;;;;;;;5084354;28;20032;-70
2024/01/31 03:44:16;;;;;;;38.80;18.58;;;-1.30;99.90;;;;;;5084398;28;20020;-68
2024/01/31 03:46:42;;;;;;;39.05;21.25;;;;;;;;;;5081948;28;20276;-69
2024/01/31 03:49:07;;;;;;;42.70;20.25;;;-1.80;99.90;;;;;;5099301;28;20301;-72
2024/01/31 03:51:33;;;;;;;40.15;21.00;;;-1.90;99.90;;;;;;5104360;28;20027;-72
2024/01/31 03:53:59;;;;;;;43.75;20.60;;;;;;;;;;5102990;28;20077;-71
2024/01/31 03:56:25;;;;;;;51.67;24.50;;;;;;;;;;5104538;28;20028;-72
2024/01/31 03:58:51;;;;;;;45.25;21.92;;;;;;;;;;5104355;28;20035;-72
2024/01/31 04:01:20;;;;;;;41.40;19.95;;;-2.10;99.90;;;;;;5104153;28;20178;-72
2024/01/31 04:03:46;;;;;;;43.00;19.48;;;;;;;;;;5102848;28;20074;-71
2024/01/31 04:06:12;;;;;;;52.67;23.73;;;-2.00;99.90;;;;;;5103939;28;20028;-71
2024/01/31 04:08:38;;;;;;;47.95;22.90;;;-1.90;99.90;;;;;;5103996;28;20065;-71
2024/01/31 04:11:04;;;;;;;47.95;23.05;;;-2.00;99.90;;;;;;5104128;28;20039;-72
2024/01/31 04:13:30;;;;;;;41.90;19.95;;;-1.80;99.90;;;;;;5102809;28;20036;-71
2024/01/31 04:15:57;;;;;;;34.25;17.08;;;-2.00;99.90;;;;;;5104450;28;20204;-72
2024/01/31 04:18:23;;;;;;;35.13;17.48;;;-2.00;99.90;;;;;;5101884;28;20027;-72
2024/01/31 04:20:49;;;;;;;38.05;18.30;;;-2.30;99.90;;;;;;5104107;28;20023;-72
2024/01/31 04:23:15;;;;;;;49.15;21.13;;;-2.00;99.90;;;;;;5103822;28;20280;-72
2024/01/31 04:25:40;;;;;;;37.10;17.25;;;-2.10;99.90;;;;;;5103857;28;20032;-73
2024/01/31 04:28:07;;;;;;;32.22;15.07;;;;;;;;;;5103788;28;20080;-72
2024/01/31 04:30:32;;;;;;;30.77;14.38;;;-1.90;99.90;;;;;;5103697;28;20027;-69
2024/01/31 04:33:01;;;;;;;30.15;16.00;;;-1.90;99.90;;;;;;5103868;28;20039;-69
2024/01/31 04:35:27;;;;;;;37.08;16.65;;;;;;;;;;5103469;28;20092;-68
2024/01/31 04:37:53;;;;;;;39.58;18.23;;;-1.70;99.90;;;;;;5103510;28;20024;-68
2024/01/31 04:40:19;;;;;;;54.25;24.40;;;-2.00;99.90;;;;;;5103656;28;20023;-70
2024/01/31 04:42:46;;;;;;;44.13;22.15;;;-1.90;99.90;;;;;;5103406;28;20024;-68
2024/01/31 04:45:13;;;;;;;52.22;23.30;;;;;;;;;;5103552;28;20387;-71
2024/01/31 04:47:41;;;;;;;49.88;23.15;;;-2.10;99.90;;;;;;5103675;28;20023;-71
2024/01/31 04:50:07;;;;;;;48.58;23.48;;;;;;;;;;5103050;28;20035;-72
2024/01/31 04:52:33;;;;;;;51.42;24.30;;;-2.00;99.90;;;;;;5103154;28;20020;-69
2024/01/31 04:54:59;;;;;;;58.35;25.08;;;-2.00;99.90;;;;;;5102095;28;20091;-72
2024/01/31 04:57:25;;;;;;;50.15;22.92;;;;;;;;;;5102986;28;20061;-68
2024/01/31 04:59:50;;;;;;;47.90;21.20;;;-2.00;99.90;;;;;;5103080;28;20220;-67
2024/01/31 05:02:16;;;;;;;55.60;23.67;;;;;;;;;;5103016;28;20016;-72
2024/01/31 05:04:42;;;;;;;47.42;22.95;;;-2.10;99.90;;;;;;5103168;28;20046;-71
2024/01/31 05:07:08;;;;;;;47.97;20.30;;;-2.20;99.90;;;;;;5103032;28;20059;-68
2024/01/31 05:09:34;;;;;;;34.63;17.58;;;;;;;;;;5102834;28;20032;-70
2024/01/31 05:12:00;;;;;;;40.58;19.42;;;-1.60;99.90;;;;;;5102993;28;20020;-70
2024/01/31 05:14:25;;;;;;;43.47;18.58;;;-1.50;99.90;;;;;;5092731;28;20257;-72
2024/01/31 05:16:51;;;;;;;47.55;20.48;;;-1.50;99.90;;;;;;5082620;28;20073;-73
2024/01/31 05:19:17;;;;;;;43.00;20.33;;;;;;;;;;5080946;28;20063;-72
2024/01/31 05:21:49;;;;;;;51.83;24.17;;;-1.40;99.90;;;;;;5082432;28;20036;-71
2024/01/31 05:24:16;;;;;;;51.20;21.60;;;-1.60;99.90;;;;;;5082464;28;20367;-72
2024/01/31 05:26:43;;;;;;;48.15;22.63;;;-1.50;99.90;;;;;;5082560;28;20025;-72
2024/01/31 05:29:10;;;;;;;47.95;23.85;;;-1.50;99.90;;;;;;5081990;28;20213;-72
2024/01/31 05:31:35;;;;;;;49.88;22.85;;;-1.60;99.90;;;;;;5082228;28;20056;-72
2024/01/31 05:34:01;;;;;;;47.75;22.67;;;-1.70;99.90;;;;;;5082460;28;20213;-72
2024/01/31 05:36:27;;;;;;;56.80;24.08;;;-1.70;99.90;;;;;;5077108;28;20021;-73
2024/01/31 05:38:53;;;;;;;58.75;27.23;;;;;;;;;;5062612;28;20134;-72
2024/01/31 05:41:19;;;;;;;51.58;24.15;;;-1.90;99.90;;;;;;5062524;28;20044;-72
2024/01/31 05:43:48;;;;;;;54.83;24.23;;;-1.80;99.90;;;;;;5062265;28;20079;-71
2024/01/31 05:46:18;;;;;;;47.95;22.83;;;;;;;;;;5062614;28;20210;-73
2024/01/31 05:48:46;;;;;;;43.25;20.13;;;-1.90;99.90;;;;;;5072579;28;20115;-74
2024/01/31 05:51:12;;;;;;;46.45;21.40;;;-2.00;99.90;;;;;;5081763;28;20031;-72
2024/01/31 05:53:38;;;;;;;38.42;18.08;;;;;;;;;;5081427;28;20047;-72
2024/01/31 05:56:04;;;;;;;41.15;18.13;;;;;;;;;;5080792;28;20056;-70
2024/01/31 05:58:30;;;;;;;35.42;19.27;;;;;;;;;;5081436;28;20035;-72
2024/01/31 06:00:56;;;;;;;74.30;28.40;;;-1.30;99.90;;;;;;5081678;28;20017;-73
2024/01/31 06:03:27;;;;;;;33.47;15.60;;;;;;;;;;5081728;28;20028;-73
2024/01/31 06:05:53;;;;;;;50.58;22.73;;;;;;;;;;5081001;28;20043;-71
2024/01/31 06:08:23;;;;;;;31.02;14.88;;;;;;;;;;5081959;28;20033;-74
2024/01/31 06:10:53;;;;;;;33.05;16.80;;;;;;;;;;5081910;28;20032;-68
2024/01/31 06:13:19;;;;;;;27.48;12.77;;;;;;;;;;5081633;28;20037;-72
2024/01/31 06:15:45;;;;;;;25.73;12.23;;;;;;;;;;5081596;28;20082;-70
2024/01/31 06:18:10;;;;;;;32.78;15.05;;;-0.90;99.90;;;;;;5081459;28;20013;-68
2024/01/31 06:20:40;;;;;;;24.60;12.85;;;-1.00;99.90;;;;;;5081268;28;20016;-69
2024/01/31 06:23:06;;;;;;;27.05;13.35;;;-0.90;99.90;;;;;;5081345;28;20020;-69
2024/01/31 06:25:32;;;;;;;31.73;14.48;;;;;;;;;;5074812;28;20028;-70
2024/01/31 06:27:58;;;;;;;28.85;14.13;;;;;;;;;;5061213;28;20055;-71
2024/01/31 06:30:31;;;;;;;36.83;18.90;;;;;;;;;;5070375;28;20031;-71
2024/01/31 06:33:05;;;;;;;47.45;21.25;;;;;;;;;;5080873;28;20045;-70
2024/01/31 06:35:32;;;;;;;42.80;22.15;;;-0.90;99.90;;;;;;5082280;28;20027;-70
2024/01/31 06:37:57;;;;;;;51.58;24.45;;;-1.00;99.90;;;;;;5082740;28;20304;-69
2024/01/31 06:40:24;;;;;;;54.92;27.75;;;-0.80;99.90;;;;;;5081415;28;20082;-70
2024/01/31 06:42:50;;;;;;;50.10;22.50;;;;;;;;;;5081853;28;20032;-71
2024/01/31 06:45:18;;;;;;;40.88;21.48;;;-1.00;99.90;;;;;;5081632;28;20028;-71
2024/01/31 06:47:45;;;;;;;47.15;23.55;;;-1.00;99.90;;;;;;5081447;28;20025;-69
2024/01/31 06:50:12;;;;;;;45.08;20.80;;;-0.60;99.90;;;;;;5081535;28;20028;-68
2024/01/31 06:52:37;;;;;;;50.78;25.48;;;-1.00;99.90;;;;;;5080652;28;20017;-68
2024/01/31 06:55:04;;;;;;;53.38;26.77;;;;;;;;;;5080903;28;20192;-68
2024/01/31 06:57:31;;;;;;;81.45;35.00;;;-1.00;99.90;;;;;;5080460;28;20088;-70
2024/01/31 06:59:57;;;;;;;70.00;30.25;;;-1.10;99.90;;;;;;5081696;28;20033;-65
2024/01/31 07:02:23;;;;;;;105.43;46.10;;;-1.00;99.90;;;;;;5079808;28;20264;-67
2024/01/31 07:04:48;;;;;;;92.30;41.30;;;-0.90;99.90;;;;;;5101231;28;20322;-67
2024/01/31 07:07:14;;;;;;;102.95;44.42;;;-0.90;99.90;;;;;;5101039;28;20028;-68
2024/01/31 07:09:40;;;;;;;75.72;37.95;;;;;;;;;;5101268;28;20047;-67
2024/01/31 07:12:06;;;;;;;86.43;38.80;;;;;;;;;;5100021;28;20034;-70
2024/01/31 07:14:32;;;;;;;81.40;37.47;;;-0.80;99.90;;;;;;5100324;28;20027;-69
2024/01/31 07:16:58;;;;;;;79.88;38.47;;;;;;;;;;5100551;28;20035;-68
2024/01/31 07:19:25;;;;;;;77.32;34.08;;;;;;;;;;5090834;28;20023;-67
2024/01/31 07:21:50;;;;;;;64.10;31.25;;;-0.50;99.90;;;;;;5100653;28;20271;-67
2024/01/31 07:24:17;;;;;;;59.00;28.58;;;;;;;;;;5101293;28;20095;-66
2024/01/31 07:26:42;;;;;;;55.72;26.67;;;-0.20;99.90;;;;;;5100696;28;20333;-67
2024/01/31 07:29:10;;;;;;;54.45;26.73;;;-0.10;99.90;;;;;;5101130;28;20016;-66
2024/01/31 07:31:36;;;;;;;48.47;23.85;;;;;;;;;;5100465;28;20360;-69
2024/01/31 07:34:02;;;;;;;45.90;23.50;;;;;;;;;;5099728;28;20043;-70
2024/01/31 07:36:28;;;;;;;46.25;22.95;;;0.40;99.90;;;;;;5076507;28;20204;-71
2024/01/31 07:38:54;;;;;;;46.25;23.08;;;;;;;;;;5100911;28;20028;-69
2024/01/31 07:41:20;;;;;;;53.17;26.23;;;0.80;99.90;;;;;;5100792;28;20027;-69
2024/01/31 07:43:46;;;;;;;52.13;25.65;;;;;;;;;;5100707;28;20040;-66
2024/01/31 07:46:12;;;;;;;61.25;29.05;;;;;;;;;;5100718;28;20096;-68
2024/01/31 07:48:38;;;;;;;67.40;31.95;;;1.20;99.90;;;;;;5100970;28;20016;-70
2024/01/31 07:51:05;;;;;;;68.10;32.03;;;0.90;99.90;;;;;;5100559;28;20054;-69
2024/01/31 07:53:34;;;;;;;65.28;31.45;;;0.90;99.90;;;;;;5102324;28;20016;-67
2024/01/31 07:55:59;;;;;;;57.75;30.33;;;1.40;99.90;;;;;;5104226;28;20028;-70
2024/01/31 07:58:26;;;;;;;56.85;30.55;;;1.50;99.90;;;;;;5104100;28;20031;-68
2024/01/31 08:00:52;;;;;;;57.78;29.05;;;;;;;;;;5103929;28;20205;-69
2024/01/31 08:03:19;;;;;;;67.43;33.67;;;1.80;99.90;;;;;;5104085;28;20051;-70
2024/01/31 08:05:45;;;;;;;68.75;35.70;;;;;;;;;;5097805;28;20032;-68
2024/01/31 08:08:12;;;;;;;66.40;32.78;;;;;;;;;;5074449;28;20024;-69
2024/01/31 08:10:38;;;;;;;57.92;30.05;;;2.00;99.90;;;;;;5063890;28;20033;-67
2024/01/31 08:13:05;;;;;;;55.53;28.75;;;;;;;;;;5076910;28;20024;-65
2024/01/31 08:15:31;;;;;;;52.90;27.02;;;2.10;99.90;;;;;;5082108;28;20079;-65
2024/01/31 08:17:57;;;;;;;57.45;29.20;;;2.30;95.60;;;;;;5070179;28;20037;-65
2024/01/31 08:20:23;;;;;;;60.08;31.15;;;;;;;;;;5062259;28;20048;-66
2024/01/31 08:22:49;;;;;;;64.25;31.98;;;2.30;99.90;;;;;;5065138;28;20097;-65
2024/01/31 08:25:15;;;;;;;49.83;24.95;;;;;;;;;;5065246;28;20049;-65
2024/01/31 08:27:40;;;;;;;49.80;26.58;;;2.80;99.90;;;;;;5063199;28;20021;-68
2024/01/31 08:30:07;;;;;;;40.63;21.70;;;2.90;99.90;;;;;;5063594;28;20025;-68
2024/01/31 08:32:35;;;;;;;45.25;24.33;;;3.40;99.90;;;;;;5072271;28;20049;-67
2024/01/31 08:35:04;;;;;;;46.93;23.77;;;3.20;99.90;;;;;;5078098;28;20091;-67
2024/01/31 08:37:30;;;;;;;41.30;22.88;;;3.40;99.90;;;;;;5082038;28;20246;-68
2024/01/31 08:39:56;;;;;;;48.90;23.90;;;3.40;99.10;;;;;;5083434;28;20025;-66
2024/01/31 08:42:22;;;;;;;44.58;23.38;;;3.50;99.90;;;;;;5083159;28;20099;-67
2024/01/31 08:44:48;;;;;;;43.22;22.65;;;;;;;;;;5080138;28;20261;-67
2024/01/31 08:47:14;;;;;;;46.60;22.20;;;;;;;;;;5062700;28;20033;-67
2024/01/31 08:49:39;;;;;;;44.75;23.00;;;3.60;99.90;;;;;;5063048;28;20020;-67
2024/01/31 08:52:05;;;;;;;44.00;23.13;;;3.40;99.90;;;;;;5062576;28;20021;-67
2024/01/31 08:54:31;;;;;;;39.28;21.95;;;3.50;99.90;;;;;;5063143;28;20024;-67
2024/01/31 08:56:57;;;;;;;45.08;25.65;;;;;;;;;;5062634;28;20328;-66
2024/01/31 08:59:23;;;;;;;40.72;22.83;;;;;;;;;;5062703;28;20070;-67
2024/01/31 09:01:49;;;;;;;48.83;26.33;;;;;;;;;;5076933;28;20032;-67
2024/01/31 09:04:15;;;;;;;49.58;27.65;;;3.90;99.90;;;;;;5073744;28;20044;-67
2024/01/31 09:06:42;;;;;;;41.60;22.23;;;3.80;99.90;;;;;;5082544;28;20024;-67
2024/01/31 09:09:08;;;;;;;40.40;22.33;;;;;;;;;;5082477;28;20036;-68
2024/01/31 09:11:34;;;;;;;39.33;22.45;;;;;;;;;;5082428;28;20028;-67
2024/01/31 09:14:00;;;;;;;37.38;20.67;;;3.90;98.50;;;;;;5082010;28;20020;-67
2024/01/31 09:16:26;;;;;;;38.90;21.00;;;3.90;98.60;;;;;;5082027;28;20149;-67
2024/01/31 09:18:51;;;;;;;34.78;19.83;;;3.80;98.20;;;;;;5081839;28;20028;-66
2024/01/31 09:21:21;;;;;;;39.53;21.42;;;4.50;91.00;;;;;;5080469;28;20024;-67
2024/01/31 09:23:47;;;;;;;39.25;21.40;;;4.00;97.90;;;;;;5080510;28;20051;-67
2024/01/31 09:26:14;;;;;;;35.83;19.80;;;;;;;;;;5080991;28;20040;-67
2024/01/31 09:28:40;;;;;;;36.53;20.20;;;;;;;;;;5081217;28;20052;-67
2024/01/31 09:31:06;;;;;;;35.92;19.55;;;;;;;;;;5080716;28;20036;-67
2024/01/31 09:33:32;;;;;;;38.92;20.85;;;4.10;97.50;;;;;;5078487;28;20016;-67
2024/01/31 09:35:57;;;;;;;39.85;21.98;;;4.20;97.50;;;;;;5080255;28;20020;-67
2024/01/31 09:38:25;;;;;;;37.28;19.25;;;4.20;97.20;;;;;;5080985;28;20030;-67
2024/01/31 09:40:51;;;;;;;36.45;19.48;;;4.30;97.00;;;;;;5080497;28;20024;-67
2024/01/31 09:43:18;;;;;;;38.45;19.58;;;4.50;95.60;;;;;;5080675;28;20079;-67
2024/01/31 09:45:44;;;;;;;36.63;19.23;;;;;;;;;;5081453;28;20052;-69
2024/01/31 09:48:13;;;;;;;40.40;20.15;;;4.30;82.40;;;;;;5081943;28;20056;-67
2024/01/31 09:50:39;;;;;;;39.03;20.45;;;;;;;;;;5082348;28;20311;-67
2024/01/31 09:53:07;;;;;;;39.85;21.75;;;4.30;91.70;;;;;;5081753;28;20041;-67
2024/01/31 09:55:35;;;;;;;34.92;18.42;;;4.30;95.50;;;;;;5081762;28;20028;-67
2024/01/31 09:58:02;;;;;;;33.13;19.05;;;4.40;95.30;;;;;;5081608;28;20017;-67
2024/01/31 10:00:28;;;;;;;30.08;17.55;;;4.20;95.30;;;;;;5081900;28;20020;-67
2024/01/31 10:02:54;;;;;;;35.97;18.67;;;4.50;95.10;;;;;;5081452;28;20025;-67
2024/01/31 10:05:20;;;;;;;33.92;17.27;;;;;;;;;;5081458;28;20032;-67
2024/01/31 10:07:46;;;;;;;28.60;17.05;;;;;;;;;;5081433;28;20020;-67
2024/01/31 10:10:11;;;;;;;30.90;17.75;;;4.70;94.90;;;;;;5081538;28;20320;-67
2024/01/31 10:12:38;;;;;;;33.58;17.17;;;4.50;94.70;;;;;;5081660;28;20027;-67
2024/01/31 10:15:08;;;;;;;35.35;17.73;;;4.60;82.30;;;;;;5081322;28;20024;-67
2024/01/31 10:17:34;;;;;;;31.83;16.17;;;4.80;93.50;;;;;;5081284;28;20043;-67
2024/01/31 10:20:07;;;;;;;29.58;17.23;;;4.70;93.30;;;;;;5081387;28;20403;-67
2024/01/31 10:22:34;;;;;;;31.80;16.13;;;4.80;93.40;;;;;;5081281;28;20008;-67
2024/01/31 10:25:00;;;;;;;28.52;16.60;;;;;;;;;;5081346;28;20028;-67
2024/01/31 10:27:26;;;;;;;33.40;19.15;;;;;;;;;;5081252;28;20111;-67
2024/01/31 10:29:55;;;;;;;24.73;14.85;;;5.10;93.40;;;;;;5081269;28;20024;-67
2024/01/31 10:32:22;;;;;;;24.42;14.05;;;4.90;88.70;;;;;;5081206;28;20056;-67
2024/01/31 10:34:49;;;;;;;28.70;15.13;;;5.00;93.00;;;;;;5081328;28;20021;-67
2024/01/31 10:37:18;;;;;;;26.90;15.68;;;4.90;74.60;;;;;;5081309;28;20021;-68
2024/01/31 10:39:46;;;;;;;24.88;13.65;;;4.90;92.30;;;;;;5079950;28;20058;-67
2024/01/31 10:42:13;;;;;;;23.20;13.77;;;4.90;92.30;;;;;;5081335;28;20036;-67
2024/01/31 10:44:40;;;;;;;26.10;14.65;;;5.00;92.30;;;;;;5081090;28;20056;-68
2024/01/31 10:47:07;;;;;;;26.15;15.07;;;5.10;74.10;;;;;;5080978;28;20059;-67
2024/01/31 10:49:33;;;;;;;30.27;15.98;;;5.20;91.80;;;;;;5081096;28;20345;-67
2024/01/31 10:52:04;;;;;;;29.13;15.43;;;5.20;76.60;;;;;;5080941;28;20021;-67
2024/01/31 10:54:34;;;;;;;28.25;16.23;;;5.40;91.70;;;;;;5081299;28;20025;-67
2024/01/31 10:57:01;;;;;;;29.35;15.80;;;5.50;91.60;;;;;;5081156;28;20024;-67
2024/01/31 10:59:27;;;;;;;26.85;16.63;;;;;;;;;;5080848;28;20063;-67
2024/01/31 11:01:55;;;;;;;27.15;15.63;;;5.60;91.10;;;;;;5080933;28;20031;-68
2024/01/31 11:04:21;;;;;;;28.30;16.05;;;5.60;91.00;;;;;;5080866;28;20084;-67
2024/01/31 11:06:51;;;;;;;27.10;15.05;;;5.90;90.50;;;;;;5080733;28;20371;-67
2024/01/31 11:09:23;;;;;;;;;;;5.80;71.00;;;;;;5081287;28;20078;-67
2024/01/31 11:12:05;;;;;;;28.95;14.30;;;6.10;89.70;;;;;;5081198;28;19900;-67
2024/01/31 11:14:32;;;;;;;30.90;16.52;;;6.30;89.80;;;;;;5081183;28;20032;-67
2024/01/31 11:17:26;;;;;;;28.83;16.10;;;6.30;89.50;;;;;;5080929;28;20342;-67
2024/01/31 11:19:59;;;;;;;24.73;13.98;;;6.40;68.30;;;;;;5079962;28;20341;-69
2024/01/31 11:22:25;;;;;;;27.33;14.90;;;6.40;86.50;;;;;;5079722;28;20032;-67
2024/01/31 11:24:53;;;;;;;30.45;15.55;;;6.80;86.80;;;;;;5080838;28;20020;-67
2024/01/31 11:27:20;;;;;;;26.15;14.10;;;6.90;85.60;;;;;;5081972;28;20099;-67
2024/01/31 11:29:51;;;;;;;28.63;16.65;;;6.90;86.40;;;;;;5084671;28;20024;-67
2024/01/31 11:32:18;;;;;;;26.83;16.67;;;6.90;85.30;;;;;;5084281;28;20369;-67
2024/01/31 11:34:43;;;;;;;23.08;14.20;;;6.90;85.10;;;;;;5084624;28;20020;-67
2024/01/31 11:37:10;;;;;;;26.33;15.10;;;6.80;84.40;;;;;;5084489;28;20209;-67
2024/01/31 11:39:36;;;;;;;25.45;15.30;;;7.30;84.60;;;;;;5084186;28;20052;-67
2024/01/31 11:42:02;;;;;;;25.52;15.20;;;7.40;85.30;;;;;;5084402;28;20028;-67
2024/01/31 11:44:29;;;;;;;28.20;15.00;;;6.80;85.30;;;;;;5084331;28;20028;-69
2024/01/31 11:46:55;;;;;;;28.80;15.75;;;7.00;84.80;;;;;;5084250;28;20044;-67
2024/01/31 11:49:22;;;;;;;25.88;16.02;;;7.00;85.10;;;;;;5084052;28;20048;-67
2024/01/31 11:51:48;;;;;;;28.20;17.25;;;7.00;84.20;;;;;;5084168;28;20028;-67
2024/01/31 11:54:14;;;;;;;31.73;17.98;;;7.50;84.20;;;;;;5084199;28;20177;-67
2024/01/31 11:56:40;;;;;;;28.50;16.40;;;7.40;83.70;;;;;;5083936;28;20342;-67
2024/01/31 11:59:07;;;;;;;28.23;17.15;;;7.90;82.80;;;;;;5083964;28;20036;-67
2024/01/31 12:01:37;;;;;;;24.85;16.27;;;7.70;62.00;;;;;;5083074;28;20029;-67
2024/01/31 12:04:04;;;;;;;26.92;15.52;;;7.60;82.30;;;;;;5083921;28;20037;-67
2024/01/31 12:06:31;;;;;;;22.52;14.18;;;7.80;82.10;;;;;;5084040;28;20033;-67
2024/01/31 12:08:57;;;;;;;27.25;15.88;;;8.00;81.60;;;;;;5083783;28;20016;-67
2024/01/31 12:11:22;;;;;;;23.65;13.93;;;7.60;80.90;;;;;;5083961;28;20047;-68
2024/01/31 12:13:49;;;;;;;20.95;13.18;;;;;;;;;;5089171;28;20020;-67
2024/01/31 12:16:15;;;;;;;22.17;14.43;;;;;;;;;;5094270;28;20090;-66
2024/01/31 12:18:40;;;;;;;23.02;13.60;;;7.30;60.00;;;;;;5102147;28;20032;-67
2024/01/31 12:21:10;;;;;;;22.55;13.93;;;7.40;81.40;;;;;;5103837;28;20039;-67
2024/01/31 12:23:36;;;;;;;26.15;14.50;;;;;;;;;;5072834;28;20019;-67
2024/01/31 12:26:02;;;;;;;24.92;14.30;;;6.90;81.70;;;;;;5082972;28;20288;-67
2024/01/31 12:28:28;;;;;;;24.52;14.80;;;6.80;81.80;;;;;;5083099;28;20025;-67
2024/01/31 12:30:53;;;;;;;20.98;14.27;;;6.80;82.40;;;;;;5074830;28;20025;-67
2024/01/31 12:33:20;;;;;;;26.98;15.35;;;6.90;61.10;;;;;;5061693;28;20265;-67
2024/01/31 12:35:45;;;;;;;33.97;16.65;;;6.80;82.70;;;;;;5062976;28;20017;-67
2024/01/31 12:38:12;;;;;;;29.25;15.55;;;6.70;61.20;;;;;;5077024;28;20065;-68
2024/01/31 12:40:38;;;;;;;28.08;15.30;;;6.60;83.80;;;;;;5082393;28;20359;-67
2024/01/31 12:43:05;;;;;;;27.02;16.30;;;;;;;;;;5082880;28;20033;-67
2024/01/31 12:45:33;;;;;;;28.75;17.15;;;6.20;62.40;;;;;;5082473;28;20024;-69
2024/01/31 12:47:59;;;;;;;24.83;15.80;;;6.20;62.90;;;;;;5082619;28;20025;-67
2024/01/31 12:50:25;;;;;;;22.15;14.25;;;6.50;78.30;;;;;;5081942;28;20043;-68
2024/01/31 12:52:52;;;;;;;26.48;15.80;;;6.10;72.50;;;;;;5082446;28;20020;-66
2024/01/31 12:55:18;;;;;;;26.17;15.35;;;6.10;85.20;;;;;;5062542;28;20020;-67